Bassett, Kansas
Current Conditions -  °F | °C
As of 11:52 AM on Saturday 20 Dec 2014 (Local Time) from KCNU Reporting Station
Broken Clouds Broken Clouds  
Wind Chill: 38°   Ceiling: 2000
Heat Index: 44°   Visibility: 10mi
Dew Point: 35°   Wind: 13mph
Humidity: 71%   Direction: 190°S
Pressure: 30.2"   Gusts: NA
Location:  37.9552°N, 95.4332°W
Report Text: KCNU 201752Z AUTO 19011KT 10SM BKN020 07/02 A3020 RMK AO2 SLP231 T00670017 10072 20022 56006
Loading
Personal Weather Stations






























Interactive Weather Map New forecast layout! Learn more

10-Day Weather Forecast

Advertisements
Track Severe Weather on mobile